Terminal Aerodrome Forecast
Issued by NWS

Home | Current Version | Previous Version | Graphics & Text | Print | Product List | Glossary On
Versions: 1 2 3 4 5 6 7 8 9 10 11 12 13 14 15
000
FTUS43 KGRB 170520
TAFCWA
TAF
KCWA 170520Z 1706/1806 17007KT P6SM VCSH SCT040 BKN070
     FM170800 27009KT 5SM -SHRA BKN040
     FM171100 27006KT P6SM VCSH OVC025
     FM171300 28007KT P6SM SCT025 BKN035
     FM171800 29011KT P6SM SCT040
     FM180300 30003KT P6SM SKC=

USA.gov is the U.S. government's official web portal to all federal, state and local government web resources and services.